createdAt,value
2023-05-15T00:00:15.527Z,14.73
2023-05-15T00:02:47.269Z,10.85
2023-05-15T00:05:15.313Z,6.65
2023-05-15T00:07:44.240Z,7.00
2023-05-15T00:10:12.085Z,9.60
2023-05-15T00:12:40.384Z,10.15
2023-05-15T00:15:09.271Z,5.45
2023-05-15T00:17:37.754Z,6.03
2023-05-15T00:20:07.949Z,9.57
2023-05-15T00:22:36.120Z,12.55
2023-05-15T00:25:05.057Z,7.93
2023-05-15T00:27:32.910Z,11.93
2023-05-15T00:30:02.035Z,11.63
2023-05-15T00:32:30.124Z,9.27
2023-05-15T00:34:58.650Z,8.82
2023-05-15T00:37:26.842Z,11.05
2023-05-15T00:39:54.999Z,10.70
2023-05-15T00:42:24.439Z,10.48
2023-05-15T00:44:54.544Z,9.60
2023-05-15T00:47:24.245Z,11.68
2023-05-15T00:49:53.730Z,9.82
2023-05-15T00:52:22.618Z,15.27
2023-05-15T00:54:51.339Z,18.25
2023-05-15T00:57:20.556Z,17.42
2023-05-15T00:59:50.234Z,15.90
2023-05-15T01:02:19.826Z,14.10
2023-05-15T01:04:47.999Z,12.77
2023-05-15T01:07:16.432Z,12.45
2023-05-15T01:09:46.486Z,13.20
2023-05-15T01:12:17.203Z,14.45
2023-05-15T01:14:48.613Z,11.95
2023-05-15T01:17:16.451Z,13.32
2023-05-15T01:19:47.685Z,20.30
2023-05-15T01:22:30.781Z,15.80
2023-05-15T01:25:32.350Z,12.90
2023-05-15T01:28:09.506Z,11.65
2023-05-15T01:30:40.850Z,12.57
2023-05-15T01:33:28.921Z,23.35
2023-05-15T01:36:02.785Z,20.23
2023-05-15T01:38:42.298Z,12.75
2023-05-15T01:41:37.240Z,12.77
2023-05-15T01:44:15.226Z,14.95
2023-05-15T01:46:49.103Z,12.88
2023-05-15T01:49:19.747Z,21.63
2023-05-15T01:51:52.090Z,13.50
2023-05-15T01:54:24.506Z,13.45
2023-05-15T01:56:53.287Z,16.95
2023-05-15T01:59:22.235Z,14.55
2023-05-15T02:01:51.880Z,10.10
2023-05-15T02:04:21.286Z,12.52
2023-05-15T02:06:51.014Z,12.10
2023-05-15T02:09:20.903Z,12.48
2023-05-15T02:11:49.476Z,13.82
2023-05-15T02:14:18.126Z,13.05
2023-05-15T02:16:46.421Z,16.02
2023-05-15T02:19:15.025Z,12.13
2023-05-15T02:21:42.976Z,10.75
2023-05-15T02:24:10.838Z,15.00
2023-05-15T02:26:55.233Z,14.73
2023-05-15T02:29:42.672Z,10.98
2023-05-15T02:32:17.552Z,16.08
2023-05-15T02:35:02.534Z,13.65
2023-05-15T02:37:36.752Z,11.77
2023-05-15T02:40:07.962Z,14.68
2023-05-15T02:42:37.532Z,15.85
2023-05-15T02:45:08.047Z,17.40
2023-05-15T02:47:37.353Z,11.25
2023-05-15T02:50:06.290Z,12.70
2023-05-15T02:52:35.631Z,15.35
2023-05-15T02:55:03.573Z,15.90
2023-05-15T02:57:31.599Z,14.00
2023-05-15T02:59:59.541Z,11.52
2023-05-15T03:02:27.631Z,12.82
2023-05-15T03:04:55.591Z,11.10
2023-05-15T03:07:23.348Z,13.35
2023-05-15T03:09:50.998Z,10.40
2023-05-15T03:12:19.173Z,10.00
2023-05-15T03:15:12.637Z,11.75
2023-05-15T03:17:53.536Z,17.63
2023-05-15T03:20:22.695Z,11.82
2023-05-15T03:22:51.078Z,12.98
2023-05-15T03:25:19.136Z,8.95
2023-05-15T03:27:53.552Z,15.07
2023-05-15T03:30:33.207Z,15.05
2023-05-15T03:33:04.040Z,12.35
2023-05-15T03:35:32.813Z,14.40
2023-05-15T03:38:00.839Z,14.02
2023-05-15T03:40:28.776Z,12.18
2023-05-15T03:42:56.955Z,12.05
2023-05-15T03:45:24.968Z,14.82
2023-05-15T03:47:53.208Z,12.40
2023-05-15T03:50:21.723Z,10.90
2023-05-15T03:52:49.980Z,26.65
2023-05-15T03:55:18.449Z,19.60
2023-05-15T03:57:46.283Z,17.80
2023-05-15T04:00:14.882Z,14.50
2023-05-15T04:02:42.917Z,21.08
2023-05-15T04:05:10.929Z,14.85
2023-05-15T04:07:39.138Z,11.70
2023-05-15T04:10:07.193Z,18.80
2023-05-15T04:12:35.756Z,11.07
2023-05-15T04:15:23.365Z,7.90
2023-05-15T04:17:53.455Z,9.77
2023-05-15T04:20:23.474Z,7.80
2023-05-15T04:22:52.246Z,8.02
2023-05-15T04:25:20.497Z,11.45
2023-05-15T04:27:49.574Z,7.90
2023-05-15T04:30:17.568Z,7.75
2023-05-15T04:32:46.013Z,8.98
2023-05-15T04:35:15.226Z,12.48
2023-05-15T04:37:43.628Z,8.15
2023-05-15T04:40:12.382Z,9.68
2023-05-15T04:42:40.181Z,6.38
2023-05-15T04:45:08.752Z,17.45
2023-05-15T04:47:36.974Z,13.40
2023-05-15T04:50:04.960Z,6.05
2023-05-15T04:52:33.743Z,10.25
2023-05-15T04:55:01.818Z,14.30
2023-05-15T04:57:31.229Z,13.63
2023-05-15T04:59:58.823Z,16.35
2023-05-15T05:02:26.472Z,13.82
2023-05-15T05:04:54.552Z,17.48
2023-05-15T05:07:22.428Z,19.92
2023-05-15T05:09:50.869Z,12.25
2023-05-15T05:12:18.564Z,8.75
2023-05-15T05:14:46.492Z,14.73
2023-05-15T05:17:14.561Z,8.70
2023-05-15T05:19:44.623Z,6.38
2023-05-15T05:22:18.375Z,10.50
2023-05-15T05:24:46.345Z,7.05
2023-05-15T05:27:14.442Z,8.55
2023-05-15T05:29:44.588Z,11.90
2023-05-15T05:32:12.919Z,20.65
2023-05-15T05:34:41.212Z,6.90
2023-05-15T05:37:09.377Z,8.35
2023-05-15T05:39:37.128Z,9.27
2023-05-15T05:42:05.305Z,4.30
2023-05-15T05:44:34.766Z,7.47
2023-05-15T05:47:03.227Z,8.57
2023-05-15T05:49:31.648Z,10.48
2023-05-15T05:52:09.212Z,4.20
2023-05-15T05:54:37.430Z,9.07
2023-05-15T05:57:11.068Z,5.10
2023-05-15T05:59:46.965Z,13.45
2023-05-15T06:02:18.425Z,9.35
2023-05-15T06:04:47.642Z,5.90
2023-05-15T06:07:19.021Z,12.73
2023-05-15T06:09:49.411Z,5.65
2023-05-15T06:12:17.793Z,8.68
2023-05-15T06:14:46.368Z,4.75
2023-05-15T06:17:16.132Z,2.88
2023-05-15T06:19:44.383Z,7.93
2023-05-15T06:22:12.955Z,2.65
2023-05-15T06:24:40.825Z,5.93
2023-05-15T06:27:11.949Z,4.85
2023-05-15T06:29:40.352Z,9.18
2023-05-15T06:32:12.257Z,8.18
2023-05-15T06:34:40.877Z,2.90
2023-05-15T06:37:08.954Z,8.88
2023-05-15T06:39:37.565Z,8.10
2023-05-15T06:42:05.858Z,6.20
2023-05-15T06:44:36.166Z,2.13
2023-05-15T06:47:04.441Z,9.23
2023-05-15T06:49:32.201Z,7.38
2023-05-15T06:52:00.896Z,3.47
2023-05-15T06:54:31.498Z,7.90
2023-05-15T06:57:00.355Z,6.82
2023-05-15T06:59:34.903Z,8.18
2023-05-15T07:02:05.303Z,3.45
2023-05-15T07:04:33.882Z,7.35
2023-05-15T07:07:05.889Z,3.47
2023-05-15T07:09:39.595Z,5.72
2023-05-15T07:12:08.623Z,5.40
2023-05-15T07:14:36.875Z,4.07
2023-05-15T07:17:14.655Z,4.75
2023-05-15T07:19:43.159Z,5.22
2023-05-15T07:22:11.159Z,4.43
2023-05-15T07:24:40.686Z,4.88
2023-05-15T07:27:08.781Z,5.28
2023-05-15T07:29:37.029Z,3.25
2023-05-15T07:32:05.283Z,3.40
2023-05-15T07:34:33.325Z,2.75
2023-05-15T07:37:01.243Z,5.22
2023-05-15T07:39:29.253Z,3.33
2023-05-15T07:41:57.324Z,2.05
2023-05-15T07:44:25.188Z,4.57
2023-05-15T07:46:53.036Z,4.07
2023-05-15T07:49:21.242Z,3.50
2023-05-15T07:51:49.085Z,7.63
2023-05-15T07:54:17.224Z,2.80
2023-05-15T07:56:45.387Z,2.05
2023-05-15T07:59:13.156Z,1.98
2023-05-15T08:01:41.235Z,2.40
2023-05-15T08:04:10.300Z,6.35
2023-05-15T08:06:43.818Z,2.78
2023-05-15T08:09:13.099Z,7.35
2023-05-15T08:11:41.657Z,7.22
2023-05-15T08:14:11.672Z,3.63
2023-05-15T08:16:41.607Z,3.13
2023-05-15T08:19:10.526Z,4.97
2023-05-15T08:21:38.598Z,2.90
2023-05-15T08:24:07.102Z,3.45
2023-05-15T08:26:35.266Z,1.75
2023-05-15T08:29:03.223Z,6.53
2023-05-15T08:31:33.742Z,5.03
2023-05-15T08:34:02.090Z,3.40
2023-05-15T08:36:30.667Z,2.20
2023-05-15T08:39:00.645Z,4.07
2023-05-15T08:41:40.734Z,3.83
2023-05-15T08:44:11.267Z,7.75
2023-05-15T08:46:39.446Z,7.60
2023-05-15T08:49:33.917Z,3.03
2023-05-15T08:52:01.866Z,6.75
2023-05-15T08:54:30.297Z,6.75
2023-05-15T08:56:58.889Z,4.43
2023-05-15T08:59:27.188Z,3.65
2023-05-15T09:01:57.062Z,4.00
2023-05-15T09:04:25.085Z,6.10
2023-05-15T09:06:54.944Z,7.32
2023-05-15T09:09:24.956Z,6.47
2023-05-15T09:11:53.958Z,6.18
2023-05-15T09:14:22.273Z,3.90
2023-05-15T09:16:53.630Z,4.20
2023-05-15T09:19:22.717Z,5.65
2023-05-15T09:21:50.897Z,3.22
2023-05-15T09:24:20.248Z,2.95
2023-05-15T09:27:02.498Z,2.65
2023-05-15T09:29:31.857Z,4.88
2023-05-15T09:32:07.607Z,4.10
2023-05-15T09:34:41.052Z,2.50
2023-05-15T09:37:28.414Z,3.58
2023-05-15T09:39:56.540Z,5.45
2023-05-15T09:42:25.097Z,3.38
2023-05-15T09:44:52.835Z,4.30
2023-05-15T09:47:21.516Z,3.60
2023-05-15T09:49:49.602Z,8.65
2023-05-15T09:52:17.621Z,4.47
2023-05-15T09:54:50.678Z,5.50
2023-05-15T09:57:23.042Z,3.30
2023-05-15T09:59:51.799Z,7.03
2023-05-15T10:02:32.309Z,4.35
2023-05-15T10:05:01.478Z,4.90
2023-05-15T10:07:37.109Z,2.33
2023-05-15T10:10:05.980Z,4.68
2023-05-15T10:12:36.885Z,2.85
2023-05-15T10:15:05.964Z,3.88
2023-05-15T10:17:36.553Z,3.42
2023-05-15T10:20:08.394Z,2.20
2023-05-15T10:22:40.937Z,1.98
2023-05-15T10:25:17.696Z,4.30
2023-05-15T10:27:48.342Z,3.97
2023-05-15T10:30:17.382Z,6.68
2023-05-15T10:32:45.628Z,6.25
2023-05-15T10:35:13.531Z,2.75
2023-05-15T10:37:42.307Z,3.22
2023-05-15T10:40:11.409Z,3.53
2023-05-15T10:42:42.321Z,2.45
2023-05-15T10:45:11.011Z,3.50
2023-05-15T10:47:41.106Z,5.50
2023-05-15T10:50:09.957Z,2.28
2023-05-15T10:52:38.865Z,4.18
2023-05-15T10:55:08.958Z,4.13
2023-05-15T10:57:37.599Z,3.80
2023-05-15T11:00:29.597Z,2.25
2023-05-15T11:02:59.375Z,4.45
2023-05-15T11:05:27.468Z,9.75
2023-05-15T11:08:19.761Z,2.90
2023-05-15T11:10:48.491Z,3.88
2023-05-15T11:13:16.597Z,10.98
2023-05-15T11:15:48.641Z,2.47
2023-05-15T11:18:17.101Z,2.65
2023-05-15T11:20:52.174Z,6.03
2023-05-15T11:23:23.933Z,17.48
2023-05-15T11:25:57.067Z,5.22
2023-05-15T11:28:26.322Z,2.83
2023-05-15T11:31:00.392Z,3.03
2023-05-15T11:33:31.674Z,3.75
2023-05-15T11:36:03.472Z,2.80
2023-05-15T11:38:39.791Z,2.28
2023-05-15T11:41:22.704Z,5.68
2023-05-15T11:43:53.028Z,1.80
2023-05-15T11:46:22.466Z,11.27
2023-05-15T11:48:50.862Z,5.97
2023-05-15T11:51:25.397Z,5.55
2023-05-15T11:53:55.476Z,2.05
2023-05-15T11:56:30.242Z,7.15
2023-05-15T11:58:59.901Z,3.65
2023-05-15T12:01:29.703Z,2.60
2023-05-15T12:03:57.789Z,3.33
2023-05-15T12:06:26.713Z,8.77
2023-05-15T12:08:54.451Z,3.45
2023-05-15T12:11:24.101Z,6.47
2023-05-15T12:13:54.502Z,4.00
2023-05-15T12:16:26.933Z,2.90
2023-05-15T12:18:56.726Z,3.90
2023-05-15T12:21:27.183Z,5.68
2023-05-15T12:24:07.589Z,4.47
2023-05-15T12:26:36.388Z,3.75
2023-05-15T12:29:05.796Z,7.13
2023-05-15T12:31:37.036Z,3.08
2023-05-15T12:34:05.568Z,4.95
2023-05-15T12:36:40.039Z,4.03
2023-05-15T12:39:08.644Z,4.30
2023-05-15T12:41:39.347Z,2.35
2023-05-15T12:44:11.613Z,4.07
2023-05-15T12:46:41.419Z,1.88
2023-05-15T12:49:21.277Z,5.07
2023-05-15T12:51:50.215Z,3.65
2023-05-15T12:54:19.442Z,6.70
2023-05-15T12:56:50.541Z,6.90
2023-05-15T12:59:19.391Z,3.30
2023-05-15T13:01:47.605Z,3.50
2023-05-15T13:04:16.787Z,5.90
2023-05-15T13:06:47.883Z,2.75
2023-05-15T13:09:22.593Z,3.42
2023-05-15T13:11:51.175Z,5.63
2023-05-15T13:14:19.961Z,5.03
2023-05-15T13:16:48.545Z,4.40
2023-05-15T13:19:17.082Z,3.70
2023-05-15T13:21:46.073Z,7.55
2023-05-15T13:24:13.876Z,3.05
2023-05-15T13:26:42.281Z,7.55
2023-05-15T13:29:10.051Z,12.18
2023-05-15T13:31:37.719Z,6.43
2023-05-15T13:34:05.370Z,8.90
2023-05-15T13:36:37.245Z,3.92
2023-05-15T13:39:06.730Z,4.88
2023-05-15T13:41:36.745Z,5.70
2023-05-15T13:44:04.908Z,2.92
2023-05-15T13:46:33.277Z,5.05
2023-05-15T13:49:07.581Z,6.35
2023-05-15T13:51:37.743Z,5.18
2023-05-15T13:54:05.654Z,8.35
2023-05-15T13:56:33.798Z,5.93
2023-05-15T13:59:02.140Z,7.85
2023-05-15T14:01:30.371Z,6.82
2023-05-15T14:03:58.539Z,22.05
2023-05-15T14:06:28.005Z,5.88
2023-05-15T14:08:56.439Z,3.30
2023-05-15T14:11:24.409Z,15.05
2023-05-15T14:13:52.177Z,6.00
2023-05-15T14:16:20.182Z,9.13
2023-05-15T14:18:51.567Z,10.02
2023-05-15T14:21:19.462Z,3.45
2023-05-15T14:23:47.711Z,11.63
2023-05-15T14:26:29.763Z,16.05
2023-05-15T14:29:03.324Z,4.82
2023-05-15T14:31:31.164Z,9.02
2023-05-15T14:33:58.835Z,10.32
2023-05-15T14:36:27.035Z,6.22
2023-05-15T14:38:55.053Z,3.47
2023-05-15T14:41:22.839Z,4.60
2023-05-15T14:43:50.923Z,9.80
2023-05-15T14:46:18.940Z,10.23
2023-05-15T14:48:47.113Z,3.67
2023-05-15T14:51:16.724Z,6.45
2023-05-15T14:53:48.109Z,7.60
2023-05-15T14:56:16.172Z,2.83
2023-05-15T14:58:44.240Z,4.18
2023-05-15T15:01:12.502Z,3.88
2023-05-15T15:03:43.282Z,3.90
2023-05-15T15:06:11.360Z,2.28
2023-05-15T15:08:39.385Z,5.20
2023-05-15T15:11:07.895Z,6.72
2023-05-15T15:13:35.934Z,6.97
2023-05-15T15:16:05.000Z,8.18
2023-05-15T15:18:33.748Z,7.82
2023-05-15T15:21:01.776Z,7.38
2023-05-15T15:23:29.736Z,4.53
2023-05-15T15:25:57.956Z,9.38
2023-05-15T15:28:26.527Z,6.25
2023-05-15T15:30:54.455Z,10.05
2023-05-15T15:33:22.278Z,5.38
2023-05-15T15:35:50.347Z,9.02
2023-05-15T15:38:18.058Z,9.73
2023-05-15T15:40:45.860Z,4.40
2023-05-15T15:43:14.064Z,8.05
2023-05-15T15:45:41.840Z,6.15
2023-05-15T15:48:09.525Z,11.23
2023-05-15T15:50:37.105Z,6.57
2023-05-15T15:53:04.951Z,5.53
2023-05-15T15:55:32.698Z,13.05
2023-05-15T15:58:00.673Z,7.50
2023-05-15T16:00:28.387Z,8.55
2023-05-15T16:02:56.363Z,9.35
2023-05-15T16:05:24.215Z,16.60
2023-05-15T16:07:52.202Z,5.05
2023-05-15T16:10:21.150Z,5.00
2023-05-15T16:12:49.106Z,6.47
2023-05-15T16:15:23.233Z,5.57
2023-05-15T16:17:54.081Z,6.78
2023-05-15T16:20:24.008Z,3.78
2023-05-15T16:22:52.737Z,9.70
2023-05-15T16:25:20.684Z,8.55
2023-05-15T16:27:48.734Z,13.32
2023-05-15T16:30:19.184Z,13.38
2023-05-15T16:32:47.332Z,18.77
2023-05-15T16:35:14.888Z,4.47
2023-05-15T16:37:42.837Z,8.10
2023-05-15T16:40:11.176Z,5.40
2023-05-15T16:42:39.002Z,6.07
2023-05-15T16:45:07.688Z,4.88
2023-05-15T16:47:38.388Z,7.53
2023-05-15T16:50:07.566Z,5.22
2023-05-15T16:52:36.025Z,8.30
2023-05-15T16:55:04.307Z,4.20
2023-05-15T16:57:32.297Z,20.02
2023-05-15T17:00:00.006Z,13.75
2023-05-15T17:02:28.262Z,14.00
2023-05-15T17:04:58.919Z,7.20
2023-05-15T17:07:27.109Z,10.55
2023-05-15T17:09:55.187Z,9.70
2023-05-15T17:12:23.765Z,9.23
2023-05-15T17:14:51.571Z,10.02
2023-05-15T17:17:19.577Z,8.00
2023-05-15T17:19:47.201Z,5.85
2023-05-15T17:22:15.118Z,14.32
2023-05-15T17:27:18.611Z,9.98
2023-05-15T17:29:46.766Z,6.63
2023-05-15T17:32:16.001Z,13.70
2023-05-15T17:34:43.855Z,9.43
2023-05-15T17:37:11.530Z,8.85
2023-05-15T17:39:39.440Z,18.27
2023-05-15T17:42:07.401Z,15.55
2023-05-15T17:44:35.147Z,11.60
2023-05-15T17:47:02.731Z,12.27
2023-05-15T17:49:33.114Z,11.02
2023-05-15T17:52:02.075Z,11.00
2023-05-15T17:54:31.332Z,12.50
2023-05-15T17:57:00.857Z,18.75
2023-05-15T17:59:34.349Z,23.20
2023-05-15T18:02:04.965Z,28.85
2023-05-15T18:04:35.632Z,27.02
2023-05-15T18:07:03.945Z,37.42
2023-05-15T18:09:32.103Z,32.47
2023-05-15T18:12:00.184Z,33.17
2023-05-15T18:14:30.967Z,25.35
2023-05-15T18:16:59.883Z,22.23
2023-05-15T18:19:28.456Z,14.57
2023-05-15T18:21:56.879Z,24.60
2023-05-15T18:24:25.744Z,23.20
2023-05-15T18:26:54.449Z,19.30
2023-05-15T18:29:24.564Z,27.52
2023-05-15T18:31:56.275Z,29.55
2023-05-15T18:34:27.607Z,28.08
2023-05-15T18:36:56.077Z,24.73
2023-05-15T18:39:23.820Z,21.23
2023-05-15T18:41:54.330Z,22.98
2023-05-15T18:46:23.704Z,20.30
2023-05-15T18:52:11.316Z,12.63
2023-05-15T18:54:43.626Z,15.93
2023-05-15T18:57:16.615Z,18.05
2023-05-15T18:59:48.985Z,18.38
2023-05-15T19:02:17.855Z,18.92
2023-05-15T19:04:46.137Z,26.80
2023-05-15T19:07:14.381Z,39.53
2023-05-15T19:09:42.461Z,54.78
2023-05-15T19:12:12.287Z,36.50
2023-05-15T19:14:41.039Z,35.70
2023-05-15T19:17:21.652Z,33.17
2023-05-15T19:19:52.304Z,41.42
2023-05-15T19:25:21.054Z,33.75
2023-05-15T19:27:48.912Z,32.35
2023-05-15T19:30:16.885Z,34.22
2023-05-15T19:32:45.439Z,43.58
2023-05-15T19:35:13.631Z,44.35
2023-05-15T19:37:41.110Z,38.78
2023-05-15T19:40:09.945Z,33.67
2023-05-15T19:42:37.761Z,39.90
2023-05-15T19:45:10.843Z,32.53
2023-05-15T19:47:42.931Z,33.63
2023-05-15T19:50:11.372Z,41.67
2023-05-15T19:52:38.988Z,34.10
2023-05-15T19:55:06.737Z,40.33
2023-05-15T19:57:35.060Z,43.08
2023-05-15T20:00:04.952Z,38.20
2023-05-15T20:02:33.030Z,33.55
2023-05-15T20:05:00.781Z,33.70
2023-05-15T20:07:28.694Z,24.52
2023-05-15T20:09:56.472Z,49.42
2023-05-15T20:12:24.079Z,33.42
2023-05-15T20:14:52.464Z,30.70
2023-05-15T20:17:20.828Z,25.98
2023-05-15T20:19:49.598Z,25.92
2023-05-15T20:22:17.569Z,26.40
2023-05-15T20:24:46.011Z,27.42
2023-05-15T20:27:13.792Z,28.48
2023-05-15T20:29:41.554Z,17.80
2023-05-15T20:32:15.700Z,30.85
2023-05-15T20:34:45.835Z,38.55
2023-05-15T20:37:13.885Z,23.40
2023-05-15T20:39:49.367Z,42.78
2023-05-15T20:42:18.240Z,19.63
2023-05-15T20:44:47.132Z,18.13
2023-05-15T20:47:17.879Z,28.77
2023-05-15T20:49:47.465Z,20.60
2023-05-15T20:52:16.206Z,22.38
2023-05-15T20:55:00.394Z,15.85
2023-05-15T20:57:28.365Z,19.60
2023-05-15T20:59:56.467Z,26.30
2023-05-15T21:02:24.217Z,13.25
2023-05-15T21:04:51.976Z,24.45
2023-05-15T21:07:19.652Z,17.63
2023-05-15T21:09:47.407Z,17.83
2023-05-15T21:12:15.113Z,16.98
2023-05-15T21:14:42.811Z,12.60
2023-05-15T21:17:13.174Z,13.15
2023-05-15T21:19:41.316Z,13.68
2023-05-15T21:22:08.955Z,18.90
2023-05-15T21:24:36.843Z,13.90
2023-05-15T21:27:04.622Z,20.92
2023-05-15T21:29:32.427Z,16.80
2023-05-15T21:32:00.286Z,15.68
2023-05-15T21:34:27.855Z,22.40
2023-05-15T21:36:55.565Z,14.07
2023-05-15T21:39:23.270Z,15.05
2023-05-15T21:41:51.506Z,14.10
2023-05-15T21:44:19.567Z,9.05
2023-05-15T21:46:47.438Z,14.73
2023-05-15T21:49:15.210Z,24.63
2023-05-15T21:51:42.658Z,13.93
2023-05-15T21:54:10.268Z,9.45
2023-05-15T21:56:37.932Z,17.83
2023-05-15T21:59:05.848Z,14.95
2023-05-15T22:01:33.518Z,12.93
2023-05-15T22:04:02.804Z,8.80
2023-05-15T22:06:31.341Z,9.27
2023-05-15T22:08:59.206Z,11.55
2023-05-15T22:11:27.198Z,18.17
2023-05-15T22:13:54.817Z,10.93
2023-05-15T22:16:23.104Z,11.00
2023-05-15T22:18:51.295Z,12.68
2023-05-15T22:21:19.586Z,12.18
2023-05-15T22:23:47.878Z,17.30
2023-05-15T22:26:15.871Z,8.90
2023-05-15T22:28:43.464Z,15.25
2023-05-15T22:31:11.380Z,13.40
2023-05-15T22:33:39.328Z,13.50
2023-05-15T22:36:07.104Z,18.30
2023-05-15T22:38:34.815Z,14.38
2023-05-15T22:41:02.279Z,13.05
2023-05-15T22:43:30.399Z,11.77
2023-05-15T22:45:58.095Z,13.45
2023-05-15T22:48:25.895Z,11.45
2023-05-15T22:50:54.044Z,15.65
2023-05-15T22:53:21.815Z,13.15
2023-05-15T22:55:49.518Z,11.27
2023-05-15T22:58:17.270Z,14.23
2023-05-15T23:00:44.941Z,8.32
2023-05-15T23:03:12.933Z,19.27
2023-05-15T23:05:40.677Z,14.98
2023-05-15T23:08:08.288Z,17.45
2023-05-15T23:10:35.800Z,18.80
2023-05-15T23:13:04.812Z,18.80
2023-05-15T23:15:32.670Z,15.65
2023-05-15T23:18:00.409Z,16.05
2023-05-15T23:20:28.337Z,22.65
2023-05-15T23:22:56.133Z,11.43
2023-05-15T23:25:23.685Z,9.25
2023-05-15T23:27:51.332Z,21.45
2023-05-15T23:30:18.997Z,20.65
2023-05-15T23:32:46.976Z,36.15
2023-05-15T23:35:14.468Z,41.65
2023-05-15T23:37:42.363Z,48.13
2023-05-15T23:40:10.433Z,46.15
2023-05-15T23:42:38.055Z,24.63
2023-05-15T23:45:06.374Z,49.15
2023-05-15T23:47:34.244Z,36.35
2023-05-15T23:50:06.884Z,39.85
2023-05-15T23:52:34.623Z,30.35
2023-05-15T23:55:02.109Z,37.70
2023-05-15T23:57:31.090Z,28.83
2023-05-15T23:59:58.535Z,43.47
